Archiv-/Tagesdaten

--Timestamp---	Temp	Chill	HIndex	Humid	Dewpt	 Wind 	HiWind	WindDir	Rain 	Barom	Solar	 ET  	 UV 
--------------	----	-----	------	-----	-----	------	------	-------	-----	-----	-----	-----	----
20101214 00:00	-6.8	-10.7	-6.8	89	-8.3	8	19	270	0.2	1021.7	0	0.000	0.0
20101214 00:05	-6.8	-10.8	-6.8	89	-8.3	8	18	248	0.0	1021.8	0	0.000	0.0
20101214 00:10	-6.8	-10.8	-6.8	89	-8.3	8	16	270	0.0	1021.8	0	0.000	0.0
20101214 00:15	-6.8	-11.3	-6.8	89	-8.3	10	16	270	0.0	1021.8	0	0.000	0.0
20101214 00:20	-6.8	-10.8	-6.8	89	-8.3	8	16	270	0.0	1021.8	0	0.000	0.0
20101214 00:25	-6.8	-10.8	-6.8	88	-8.5	8	14	292	0.0	1021.8	0	0.000	0.0
20101214 00:30	-6.8	-6.8	-6.8	88	-8.5	5	11	270	0.0	1021.9	0	0.000	0.0
20101214 00:35	-6.8	-6.8	-6.8	89	-8.3	5	8	270	0.2	1021.9	0	0.000	0.0
20101214 00:40	-6.8	-6.8	-6.8	89	-8.3	2	6	270	0.0	1021.9	0	0.000	0.0
20101214 00:45	-6.7	-6.7	-6.7	89	-8.2	3	5	270	0.0	1021.8	0	0.000	0.0
20101214 00:50	-6.6	-6.6	-6.6	89	-8.1	5	8	248	0.0	1021.8	0	0.000	0.0
20101214 00:55	-6.6	-6.6	-6.6	89	-8.1	5	8	248	0.0	1021.8	0	0.000	0.0
20101214 01:00	-6.6	-6.6	-6.6	89	-8.1	5	8	248	0.0	1021.7	0	0.000	0.0
20101214 01:05	-6.6	-6.6	-6.6	89	-8.1	5	8	248	0.0	1021.3	0	0.000	0.0
20101214 01:10	-6.6	-6.6	-6.6	89	-8.1	5	10	270	0.0	1021.4	0	0.000	0.0
20101214 01:15	-6.7	-6.7	-6.7	89	-8.2	5	8	225	0.0	1021.4	0	0.000	0.0
20101214 01:20	-6.6	-6.6	-6.6	89	-8.1	5	10	248	0.0	1021.4	0	0.000	0.0
20101214 01:25	-6.7	-6.7	-6.7	89	-8.2	3	8	270	0.0	1021.5	0	0.000	0.0
20101214 01:30	-6.7	-6.7	-6.7	89	-8.2	3	6	270	0.0	1021.5	0	0.000	0.0
20101214 01:35	-6.7	-6.7	-6.7	89	-8.2	3	8	270	0.0	1021.4	0	0.000	0.0
20101214 01:40	-6.7	-6.7	-6.7	89	-8.2	2	6	270	0.0	1021.4	0	0.000	0.0
20101214 01:45	-6.7	-6.7	-6.7	89	-8.2	3	6	270	0.0	1021.4	0	0.000	0.0
20101214 01:50	-6.7	-6.7	-6.7	89	-8.2	3	8	270	0.0	1021.4	0	0.000	0.0
20101214 01:55	-6.7	-6.7	-6.7	88	-8.3	5	8	270	0.0	1021.5	0	0.000	0.0
20101214 02:00	-6.7	-6.7	-6.7	88	-8.3	3	6	292	0.0	1021.5	0	0.000	0.0
20101214 02:05	-6.7	-6.7	-6.7	88	-8.4	3	6	292	0.0	1021.7	0	0.000	0.0
20101214 02:10	-6.8	-6.8	-6.8	88	-8.4	3	5	292	0.0	1021.8	0	0.000	0.0
20101214 02:15	-6.8	-6.8	-6.8	88	-8.5	3	6	292	0.0	1021.7	0	0.000	0.0
20101214 02:20	-6.8	-6.8	-6.8	88	-8.5	2	5	292	0.0	1021.7	0	0.000	0.0
20101214 02:25	-6.8	-6.8	-6.8	88	-8.5	0	3	292	0.0	1021.8	0	0.000	0.0
20101214 02:30	-6.9	-6.9	-6.9	88	-8.6	0	2	292	0.0	1021.8	0	0.000	0.0
20101214 02:35	-6.9	-6.9	-6.9	88	-8.6	0	3	292	0.0	1021.8	0	0.000	0.0
20101214 02:40	-7.0	-7.0	-7.0	88	-8.6	0	2	292	0.0	1021.8	0	0.000	0.0
20101214 02:45	-7.1	-7.1	-7.1	88	-8.7	0	0	-100000	0.0	1021.7	0	0.000	0.0
20101214 02:50	-7.2	-7.2	-7.2	87	-9.0	0	2	292	0.0	1021.7	0	0.000	0.0
20101214 02:55	-7.3	-7.3	-7.3	88	-8.9	0	2	292	0.0	1021.6	0	0.000	0.0
20101214 03:00	-7.3	-7.3	-7.3	88	-9.0	0	3	292	0.0	1021.6	0	0.000	0.0
20101214 03:05	-7.4	-7.4	-7.4	88	-9.0	0	3	292	0.0	1021.7	0	0.000	0.0
20101214 03:10	-7.4	-7.4	-7.4	88	-9.1	0	0	-100000	0.0	1021.7	0	0.000	0.0
20101214 03:15	-7.5	-7.5	-7.5	88	-9.1	0	0	-100000	0.0	1021.8	0	0.000	0.0
20101214 03:20	-7.6	-7.6	-7.6	88	-9.2	0	0	-100000	0.0	1021.9	0	0.000	0.0
20101214 03:25	-7.6	-7.6	-7.6	88	-9.2	0	0	-100000	0.0	1021.9	0	0.000	0.0
20101214 03:30	-7.6	-7.6	-7.6	88	-9.2	0	0	-100000	0.0	1021.9	0	0.000	0.0
20101214 03:35	-7.6	-7.6	-7.6	88	-9.2	0	0	-100000	0.0	1021.8	0	0.000	0.0
20101214 03:40	-7.6	-7.6	-7.6	88	-9.2	0	0	-100000	0.0	1021.8	0	0.000	0.0
20101214 03:45	-7.7	-7.7	-7.7	88	-9.3	0	0	-100000	0.0	1021.8	0	0.000	0.0
20101214 03:50	-7.7	-7.7	-7.7	88	-9.4	0	0	-100000	0.0	1021.8	0	0.000	0.0
20101214 03:55	-7.8	-7.8	-7.8	88	-9.4	0	0	-100000	0.0	1021.8	0	0.000	0.0
20101214 04:00	-7.8	-7.8	-7.8	88	-9.4	0	0	-100000	0.0	1021.8	0	0.000	0.0
20101214 04:05	-7.7	-7.7	-7.7	88	-9.4	0	0	-100000	0.0	1021.7	0	0.000	0.0
20101214 04:10	-7.7	-7.7	-7.7	89	-9.2	0	0	-100000	0.0	1021.7	0	0.000	0.0
20101214 04:15	-7.6	-7.6	-7.6	88	-9.2	0	0	-100000	0.0	1021.7	0	0.000	0.0
20101214 04:20	-7.4	-7.4	-7.4	89	-8.9	0	0	-100000	0.0	1021.5	0	0.000	0.0
20101214 04:25	-7.3	-7.3	-7.3	88	-9.0	2	3	292	0.0	1021.6	0	0.000	0.0
20101214 04:30	-7.3	-7.3	-7.3	88	-8.9	3	6	292	0.0	1021.4	0	0.000	0.0
20101214 04:35	-7.3	-7.3	-7.3	88	-8.9	3	5	292	0.0	1021.5	0	0.000	0.0
20101214 04:40	-7.3	-7.3	-7.3	87	-9.1	3	5	292	0.0	1021.5	0	0.000	0.0
20101214 04:45	-7.4	-7.4	-7.4	87	-9.2	3	6	292	0.0	1021.6	0	0.000	0.0
20101214 04:50	-7.6	-7.6	-7.6	86	-9.5	3	6	292	0.0	1021.6	0	0.000	0.0
20101214 04:55	-7.7	-7.7	-7.7	86	-9.6	3	5	292	0.0	1021.8	0	0.000	0.0
20101214 05:00	-7.7	-7.7	-7.7	86	-9.6	3	6	292	0.0	1021.8	0	0.000	0.0
20101214 05:05	-7.7	-7.7	-7.7	86	-9.6	3	6	292	0.0	1021.6	0	0.000	0.0
20101214 05:10	-7.7	-7.7	-7.7	86	-9.6	3	6	292	0.0	1021.6	0	0.000	0.0
20101214 05:15	-7.7	-7.7	-7.7	86	-9.6	3	6	292	0.0	1021.6	0	0.000	0.0
20101214 05:20	-7.8	-7.8	-7.8	86	-9.7	3	5	270	0.0	1021.6	0	0.000	0.0
20101214 05:25	-7.8	-7.8	-7.8	86	-9.8	5	6	270	0.0	1021.6	0	0.000	0.0
20101214 05:30	-7.9	-7.9	-7.9	86	-9.8	5	6	270	0.0	1021.6	0	0.000	0.0
20101214 05:35	-7.9	-7.9	-7.9	86	-9.9	3	6	292	0.0	1021.6	0	0.000	0.0
20101214 05:40	-7.9	-7.9	-7.9	86	-9.9	3	6	292	0.0	1021.8	0	0.000	0.0
20101214 05:45	-8.0	-8.0	-8.0	86	-9.9	3	6	292	0.0	1021.8	0	0.000	0.0
20101214 05:50	-8.1	-8.1	-8.1	86	-10.0	5	8	270	0.0	1021.7	0	0.000	0.0
20101214 05:55	-8.2	-8.2	-8.2	86	-10.1	5	8	270	0.0	1021.9	0	0.000	0.0
20101214 06:00	-8.3	-8.3	-8.3	86	-10.2	5	8	270	0.0	1021.9	0	0.000	0.0
20101214 06:05	-8.4	-8.4	-8.4	86	-10.3	5	6	270	0.0	1022.1	0	0.000	0.0
20101214 06:10	-8.4	-8.4	-8.4	86	-10.4	3	6	270	0.0	1022.1	0	0.000	0.0
20101214 06:15	-8.5	-8.5	-8.5	86	-10.4	5	6	270	0.0	1022.2	0	0.000	0.0
20101214 06:20	-8.6	-8.6	-8.6	86	-10.5	3	6	270	0.0	1022.2	0	0.000	0.0
20101214 06:25	-8.7	-8.7	-8.7	86	-10.6	5	8	270	0.0	1022.3	0	0.000	0.0
20101214 06:30	-8.8	-8.8	-8.8	86	-10.7	5	6	270	0.0	1022.3	0	0.000	0.0
20101214 06:35	-8.9	-8.9	-8.9	86	-10.8	5	8	270	0.0	1022.3	0	0.000	0.0
20101214 06:40	-9.0	-9.0	-9.0	86	-10.9	5	6	270	0.0	1022.4	0	0.000	0.0
20101214 06:45	-9.1	-9.1	-9.1	87	-10.9	3	6	270	0.0	1022.4	0	0.000	0.0
20101214 06:50	-9.2	-9.2	-9.2	87	-10.9	5	6	270	0.0	1022.4	0	0.000	0.0
20101214 06:55	-9.2	-9.2	-9.2	87	-11.0	5	8	292	0.0	1022.5	0	0.000	0.0
20101214 07:00	-9.2	-9.2	-9.2	87	-11.0	5	8	292	0.0	1022.7	0	0.000	0.0
20101214 07:05	-9.3	-9.3	-9.3	87	-11.1	5	8	292	0.0	1022.7	0	0.000	0.0
20101214 07:10	-9.3	-9.3	-9.3	87	-11.1	5	10	292	0.0	1022.8	0	0.000	0.0
20101214 07:15	-9.4	-9.4	-9.4	88	-11.0	5	6	270	0.0	1022.8	0	0.000	0.0
20101214 07:20	-9.4	-9.4	-9.4	88	-11.0	5	6	270	0.0	1022.8	0	0.000	0.0
20101214 07:25	-9.4	-9.4	-9.4	88	-11.0	5	8	270	0.0	1022.9	0	0.000	0.0
20101214 07:30	-9.4	-9.4	-9.4	88	-11.1	5	6	270	0.0	1023.0	0	0.000	0.0
20101214 07:35	-9.4	-9.4	-9.4	88	-11.1	3	5	270	0.0	1023.1	0	0.000	0.0
20101214 07:40	-9.5	-9.5	-9.5	88	-11.1	3	5	270	0.0	1023.1	0	0.000	0.0
20101214 07:45	-9.4	-9.4	-9.4	88	-11.1	3	6	270	0.0	1023.3	0	0.000	0.0
20101214 07:50	-9.4	-9.4	-9.4	88	-11.1	3	5	270	0.0	1023.3	0	0.000	0.0
20101214 07:55	-9.4	-9.4	-9.4	88	-11.1	5	6	248	0.0	1023.4	0	0.000	0.0
20101214 08:00	-9.5	-9.5	-9.5	88	-11.1	5	8	248	0.0	1023.4	0	0.000	0.0
20101214 08:05	-9.5	-9.5	-9.5	89	-11.0	5	6	248	0.0	1023.4	0	0.000	0.0
20101214 08:10	-9.5	-9.5	-9.5	89	-11.0	3	5	248	0.0	1023.5	0	0.000	0.0
20101214 08:15	-9.5	-9.5	-9.5	89	-11.0	5	6	248	0.0	1023.5	3	0.000	0.0
20101214 08:20	-9.5	-9.5	-9.5	89	-11.0	5	6	248	0.0	1023.6	5	0.000	0.0
20101214 08:25	-9.4	-9.4	-9.4	89	-10.9	5	8	270	0.0	1023.7	9	0.000	0.0
20101214 08:30	-9.3	-9.3	-9.3	89	-10.8	5	6	270	0.0	1023.8	11	0.000	0.0
20101214 08:35	-9.2	-9.2	-9.2	89	-10.7	5	6	270	0.0	1023.8	12	0.000	0.0
20101214 08:40	-9.2	-9.2	-9.2	89	-10.6	3	5	270	0.0	1023.8	12	0.000	0.0
20101214 08:45	-9.2	-9.2	-9.2	88	-10.8	5	6	270	0.0	1023.8	14	0.000	0.0
20101214 08:50	-9.2	-9.2	-9.2	88	-10.8	5	6	292	0.0	1023.8	15	0.000	0.0
20101214 08:55	-9.1	-9.1	-9.1	88	-10.7	5	6	292	0.0	1023.9	14	0.000	0.0
20101214 09:00	-9.1	-9.1	-9.1	88	-10.7	3	6	292	0.0	1023.9	12	0.000	0.0
20101214 09:05	-9.1	-9.1	-9.1	88	-10.7	5	6	292	0.0	1023.9	11	0.000	0.0
20101214 09:10	-9.0	-9.0	-9.0	88	-10.6	5	5	292	0.0	1023.9	11	0.000	0.0
20101214 09:15	-8.9	-8.9	-8.9	88	-10.6	5	6	292	0.0	1024.0	16	0.000	0.0
20101214 09:20	-8.9	-8.9	-8.9	88	-10.6	3	5	292	0.0	1024.0	23	0.000	0.0
20101214 09:25	-8.9	-8.9	-8.9	88	-10.5	5	6	292	0.0	1024.0	27	0.000	0.0
20101214 09:30	-8.9	-8.9	-8.9	88	-10.5	5	8	270	0.0	1024.1	28	0.000	0.0
20101214 09:35	-8.9	-12.4	-8.9	88	-10.5	6	8	270	0.0	1024.1	26	0.000	0.0
20101214 09:40	-8.9	-8.9	-8.9	88	-10.5	5	8	270	0.0	1024.2	27	0.000	0.0
20101214 09:45	-8.8	-8.8	-8.8	88	-10.4	5	8	270	0.0	1024.2	28	0.000	0.0
20101214 09:50	-8.7	-8.7	-8.7	88	-10.3	5	6	270	0.0	1024.2	31	0.000	0.0
20101214 09:55	-8.7	-8.7	-8.7	88	-10.3	5	6	292	0.0	1024.3	40	0.000	0.0
20101214 10:00	-8.6	-8.6	-8.6	88	-10.2	5	6	292	0.0	1024.5	50	0.000	0.0
20101214 10:05	-8.4	-8.4	-8.4	88	-10.0	3	5	292	0.0	1024.5	52	0.000	0.0
20101214 10:10	-8.2	-8.2	-8.2	88	-9.8	3	6	292	0.0	1024.6	42	0.000	0.0
20101214 10:15	-8.0	-8.0	-8.0	88	-9.6	3	6	315	0.0	1024.4	40	0.000	0.0
20101214 10:20	-7.8	-7.8	-7.8	88	-9.4	2	5	315	0.0	1024.5	41	0.000	0.0
20101214 10:25	-7.7	-7.7	-7.7	87	-9.5	3	6	315	0.0	1024.6	39	0.000	0.0
20101214 10:30	-7.6	-7.6	-7.6	87	-9.4	5	6	315	0.0	1024.6	37	0.000	0.0
20101214 10:35	-7.5	-7.5	-7.5	86	-9.4	5	8	270	0.0	1024.6	39	0.000	0.0
20101214 10:40	-7.4	-10.8	-7.4	86	-9.4	6	8	292	0.0	1024.6	42	0.000	0.0
20101214 10:45	-7.4	-10.8	-7.4	86	-9.4	6	10	292	0.0	1024.5	47	0.000	0.0
20101214 10:50	-7.3	-7.3	-7.3	86	-9.3	5	10	270	0.0	1024.4	51	0.000	0.0
20101214 10:55	-7.3	-10.6	-7.3	85	-9.4	6	11	248	0.0	1024.5	58	0.000	0.0
20101214 11:00	-7.3	-11.3	-7.3	85	-9.4	8	14	292	0.0	1024.5	63	0.025	0.0
20101214 11:05	-7.4	-11.4	-7.4	85	-9.5	8	11	270	0.0	1024.5	80	0.000	0.0
20101214 11:10	-7.3	-10.7	-7.3	85	-9.4	6	10	270	0.0	1024.6	92	0.000	0.0
20101214 11:15	-7.3	-11.3	-7.3	85	-9.4	8	11	292	0.0	1024.5	66	0.000	0.0
20101214 11:20	-7.2	-7.2	-7.2	85	-9.3	5	10	270	0.0	1024.5	66	0.000	0.0
20101214 11:25	-6.8	-6.8	-6.8	85	-8.9	5	10	292	0.0	1024.4	101	0.000	0.0
20101214 11:30	-6.7	-9.9	-6.7	85	-8.8	6	10	292	0.0	1024.4	116	0.000	0.0
20101214 11:35	-6.4	-10.3	-6.4	84	-8.7	8	11	292	0.0	1024.4	89	0.000	0.0
20101214 11:40	-6.3	-10.2	-6.3	83	-8.7	8	11	292	0.0	1024.4	74	0.000	0.0
20101214 11:45	-6.3	-10.2	-6.3	83	-8.7	8	11	292	0.0	1024.4	117	0.000	0.0
20101214 11:50	-6.3	-10.2	-6.3	83	-8.7	8	13	270	0.0	1024.3	122	0.000	0.0
20101214 11:55	-6.3	-10.7	-6.3	82	-8.9	10	14	292	0.0	1024.3	102	0.000	0.0
20101214 12:00	-6.3	-10.7	-6.3	82	-8.9	10	16	270	0.0	1024.3	141	0.025	0.0
20101214 12:05	-6.3	-10.1	-6.3	82	-8.8	8	16	270	0.0	1024.2	130	0.000	0.0
20101214 12:10	-6.2	-10.6	-6.2	82	-8.8	10	18	292	0.0	1024.3	132	0.000	0.0
20101214 12:15	-6.2	-10.5	-6.2	81	-8.9	10	16	270	0.0	1024.2	126	0.000	0.0
20101214 12:20	-6.2	-11.0	-6.2	80	-9.0	11	19	292	0.0	1024.2	135	0.000	0.0
20101214 12:25	-6.3	-11.2	-6.3	80	-9.2	11	18	270	0.0	1024.2	119	0.000	0.0
20101214 12:30	-6.3	-11.2	-6.3	80	-9.2	11	16	270	0.0	1024.2	150	0.000	0.0
20101214 12:35	-6.3	-11.2	-6.3	80	-9.2	11	16	292	0.0	1024.2	183	0.000	0.0
20101214 12:40	-6.2	-11.1	-6.2	80	-9.1	11	16	270	0.0	1024.2	209	0.000	0.0
20101214 12:45	-6.1	-11.0	-6.1	80	-9.0	11	16	292	0.0	1024.2	158	0.000	0.0
20101214 12:50	-6.0	-10.4	-6.0	81	-8.7	10	16	292	0.0	1024.2	190	0.000	0.0
20101214 12:55	-5.8	-9.6	-5.8	80	-8.7	8	16	292	0.0	1024.3	185	0.000	0.0
20101214 13:00	-5.7	-9.5	-5.7	79	-8.8	8	16	292	0.0	1024.2	201	0.051	0.0
20101214 13:05	-5.7	-9.4	-5.7	79	-8.7	8	16	270	0.0	1024.2	189	0.000	0.0
20101214 13:10	-5.5	-9.2	-5.5	79	-8.6	8	14	270	0.0	1024.2	227	0.000	0.0
20101214 13:15	-5.4	-11.0	-5.4	78	-8.7	14	19	270	0.0	1024.3	268	0.000	0.0
20101214 13:20	-5.4	-10.9	-5.4	78	-8.6	14	21	270	0.0	1024.3	212	0.000	0.0
20101214 13:25	-5.5	-10.2	-5.5	78	-8.7	11	18	270	0.0	1024.4	127	0.000	0.0
20101214 13:30	-5.6	-10.8	-5.6	78	-8.8	13	23	270	0.0	1024.4	89	0.000	0.0
20101214 13:35	-5.8	-11.4	-5.8	79	-8.8	14	21	292	0.0	1024.4	102	0.000	0.0
20101214 13:40	-5.8	-10.6	-5.8	79	-8.8	11	18	270	0.0	1024.4	87	0.000	0.0
20101214 13:45	-5.7	-9.5	-5.7	79	-8.8	8	16	292	0.0	1024.5	69	0.000	0.0
20101214 13:50	-5.7	-10.0	-5.7	80	-8.6	10	18	292	0.0	1024.5	76	0.000	0.0
20101214 13:55	-5.7	-10.5	-5.7	79	-8.8	11	19	270	0.0	1024.5	61	0.000	0.0
20101214 14:00	-5.8	-10.1	-5.8	80	-8.7	10	18	270	0.0	1024.5	54	0.051	0.0
20101214 14:05	-5.8	-10.6	-5.8	80	-8.7	11	18	270	0.0	1024.7	48	0.000	0.0
20101214 14:10	-5.9	-10.2	-5.9	80	-8.8	10	16	270	0.0	1024.8	51	0.000	0.0
20101214 14:15	-5.8	-9.6	-5.8	80	-8.7	8	16	292	0.0	1024.7	50	0.000	0.0
20101214 14:20	-5.8	-10.1	-5.8	81	-8.5	10	16	270	0.0	1024.7	48	0.000	0.0
20101214 14:25	-5.8	-9.5	-5.8	81	-8.5	8	16	270	0.0	1024.8	52	0.000	0.0
20101214 14:30	-5.7	-10.0	-5.7	80	-8.6	10	16	270	0.0	1024.8	55	0.000	0.0
20101214 14:35	-5.7	-8.7	-5.7	81	-8.4	6	13	248	0.0	1024.8	61	0.000	0.0
20101214 14:40	-5.6	-9.3	-5.6	81	-8.3	8	18	248	0.0	1024.8	65	0.000	0.0
20101214 14:45	-5.6	-9.3	-5.6	81	-8.3	8	14	270	0.0	1024.8	57	0.000	0.0
20101214 14:50	-5.6	-9.9	-5.6	81	-8.3	10	18	292	0.0	1025.0	46	0.000	0.0
20101214 14:55	-5.7	-10.5	-5.7	82	-8.3	11	18	270	0.0	1025.0	35	0.000	0.0
20101214 15:00	-5.9	-10.2	-5.9	83	-8.3	10	16	292	0.0	1025.0	29	0.025	0.0
20101214 15:05	-6.0	-10.4	-6.0	84	-8.3	10	16	270	0.0	1025.2	26	0.000	0.0
20101214 15:10	-6.1	-10.4	-6.1	85	-8.2	10	14	270	0.0	1025.2	25	0.000	0.0
20101214 15:15	-6.1	-9.9	-6.1	85	-8.2	8	14	270	0.0	1025.2	20	0.000	0.0
20101214 15:20	-6.1	-9.9	-6.1	86	-8.1	8	16	270	0.0	1025.2	16	0.000	0.0
20101214 15:25	-6.1	-9.8	-6.1	86	-8.0	8	16	270	0.0	1025.3	16	0.000	0.0
20101214 15:30	-6.1	-10.5	-6.1	86	-8.1	10	14	270	0.0	1025.3	14	0.000	0.0
20101214 15:35	-6.2	-10.5	-6.2	86	-8.1	10	16	270	0.0	1025.3	12	0.000	0.0
20101214 15:40	-6.2	-10.5	-6.2	86	-8.1	10	16	270	0.0	1025.3	10	0.000	0.0
20101214 15:45	-6.2	-10.0	-6.2	86	-8.1	8	16	270	0.0	1025.3	9	0.000	0.0
20101214 15:50	-6.2	-10.0	-6.2	86	-8.1	8	14	270	0.0	1025.4	8	0.000	0.0
20101214 15:55	-6.2	-9.3	-6.2	87	-8.0	6	13	270	0.0	1025.4	7	0.000	0.0
20101214 16:00	-6.2	-10.0	-6.2	87	-8.0	8	14	270	0.0	1025.4	6	0.000	0.0
20101214 16:05	-6.2	-9.3	-6.2	87	-8.0	6	11	270	0.0	1025.5	4	0.000	0.0
20101214 16:10	-6.2	-9.3	-6.2	87	-8.0	6	13	270	0.0	1025.6	0	0.000	0.0
20101214 16:15	-6.2	-9.3	-6.2	87	-8.0	6	10	248	0.0	1025.6	0	0.000	0.0
20101214 16:20	-6.1	-9.2	-6.1	87	-7.9	6	11	270	0.0	1025.6	0	0.000	0.0
20101214 16:25	-6.1	-9.2	-6.1	87	-7.9	6	14	270	0.0	1025.5	0	0.000	0.0
20101214 16:30	-6.1	-9.9	-6.1	87	-7.9	8	14	270	0.0	1025.6	0	0.000	0.0
20101214 16:35	-6.1	-9.9	-6.1	87	-7.9	8	16	270	0.0	1025.7	0	0.000	0.0
20101214 16:40	-6.1	-9.9	-6.1	87	-7.9	8	18	270	0.0	1025.7	0	0.000	0.0
20101214 16:45	-6.1	-9.9	-6.1	87	-7.9	8	11	270	0.0	1025.7	0	0.000	0.0
20101214 16:50	-6.1	-9.2	-6.1	87	-7.9	6	14	270	0.0	1025.8	0	0.000	0.0
20101214 16:55	-6.2	-10.0	-6.2	87	-8.0	8	16	270	0.0	1025.8	0	0.000	0.0
20101214 17:00	-6.2	-10.0	-6.2	87	-8.0	8	16	270	0.0	1025.8	0	0.000	0.0
20101214 17:05	-6.2	-10.0	-6.2	87	-8.0	8	14	270	0.0	1025.8	0	0.000	0.0
20101214 17:10	-6.2	-10.0	-6.2	87	-8.0	8	16	270	0.0	1025.8	0	0.000	0.0
20101214 17:15	-6.3	-10.7	-6.3	87	-8.1	10	16	270	0.0	1025.9	0	0.000	0.0
20101214 17:20	-6.3	-11.2	-6.3	86	-8.3	11	19	270	0.0	1025.8	0	0.000	0.0
20101214 17:25	-6.3	-10.7	-6.3	86	-8.3	10	16	270	0.0	1025.8	0	0.000	0.0
20101214 17:30	-6.3	-10.2	-6.3	86	-8.3	8	16	292	0.0	1025.9	0	0.000	0.0
20101214 17:35	-6.4	-10.8	-6.4	86	-8.3	10	16	270	0.0	1026.0	0	0.000	0.0
20101214 17:40	-6.4	-9.6	-6.4	87	-8.2	6	11	292	0.0	1026.0	0	0.000	0.0
20101214 17:45	-6.4	-10.2	-6.4	87	-8.2	8	16	292	0.0	1026.0	0	0.000	0.0
20101214 17:50	-6.4	-10.9	-6.4	87	-8.2	10	19	270	0.0	1026.1	0	0.000	0.0
20101214 17:55	-6.4	-10.9	-6.4	87	-8.2	10	16	270	0.0	1026.2	0	0.000	0.0
20101214 18:00	-6.4	-10.9	-6.4	87	-8.2	10	18	270	0.0	1026.2	0	0.000	0.0
20101214 18:05	-6.4	-11.4	-6.4	87	-8.2	11	21	292	0.0	1026.3	0	0.000	0.0
20101214 18:10	-6.4	-11.8	-6.4	87	-8.2	13	18	292	0.0	1026.2	0	0.000	0.0
20101214 18:15	-6.4	-11.8	-6.4	87	-8.2	13	21	270	0.0	1026.1	0	0.000	0.0
20101214 18:20	-6.4	-11.8	-6.4	87	-8.2	13	24	270	0.0	1026.1	0	0.000	0.0
20101214 18:25	-6.4	-10.8	-6.4	86	-8.3	10	18	270	0.0	1026.0	0	0.000	0.0
20101214 18:30	-6.4	-11.3	-6.4	87	-8.2	11	18	292	0.0	1026.1	0	0.000	0.0
20101214 18:35	-6.4	-10.8	-6.4	87	-8.2	10	18	292	0.0	1026.2	0	0.000	0.0
20101214 18:40	-6.4	-10.8	-6.4	87	-8.2	10	18	270	0.0	1026.2	0	0.000	0.0
20101214 18:45	-6.4	-10.2	-6.4	87	-8.2	8	16	292	0.0	1026.5	0	0.000	0.0
20101214 18:50	-6.4	-10.2	-6.4	87	-8.2	8	16	270	0.0	1026.3	0	0.000	0.0
20101214 18:55	-6.4	-10.8	-6.4	87	-8.2	10	19	270	0.0	1026.3	0	0.000	0.0
20101214 19:00	-6.4	-11.4	-6.4	87	-8.2	11	19	270	0.0	1026.5	0	0.000	0.0
20101214 19:05	-6.4	-10.9	-6.4	88	-8.1	10	16	270	0.0	1026.6	0	0.000	0.0
20101214 19:10	-6.4	-10.3	-6.4	88	-8.1	8	18	270	0.2	1026.6	0	0.000	0.0
20101214 19:15	-6.4	-11.4	-6.4	88	-8.1	11	19	270	0.0	1026.6	0	0.000	0.0
20101214 19:20	-6.4	-11.4	-6.4	88	-8.1	11	18	270	0.0	1026.6	0	0.000	0.0
20101214 19:25	-6.4	-11.8	-6.4	88	-8.1	13	21	270	0.0	1026.6	0	0.000	0.0
20101214 19:30	-6.4	-11.4	-6.4	88	-8.1	11	21	270	0.0	1026.6	0	0.000	0.0
20101214 19:35	-6.4	-11.4	-6.4	88	-8.1	11	19	292	0.0	1026.6	0	0.000	0.0
20101214 19:40	-6.5	-12.3	-6.5	88	-8.2	14	23	270	0.0	1026.6	0	0.000	0.0
20101214 19:45	-6.5	-11.9	-6.5	89	-8.0	13	19	270	0.0	1026.6	0	0.000	0.0
20101214 19:50	-6.5	-11.4	-6.5	89	-8.0	11	18	270	0.0	1026.7	0	0.000	0.0
20101214 19:55	-6.6	-11.0	-6.6	89	-8.1	10	18	270	0.0	1026.7	0	0.000	0.0
20101214 20:00	-6.6	-11.5	-6.6	89	-8.1	11	16	292	0.0	1026.6	0	0.000	0.0
20101214 20:05	-6.5	-10.9	-6.5	89	-8.0	10	18	270	0.2	1026.5	0	0.000	0.0
20101214 20:10	-6.5	-10.9	-6.5	89	-8.0	10	18	270	0.0	1026.7	0	0.000	0.0
20101214 20:15	-6.5	-11.4	-6.5	89	-8.0	11	19	292	0.0	1026.7	0	0.000	0.0
20101214 20:20	-6.4	-10.9	-6.4	89	-8.0	10	16	292	0.0	1026.8	0	0.000	0.0
20101214 20:25	-6.4	-10.9	-6.4	89	-8.0	10	18	270	0.0	1026.8	0	0.000	0.0
20101214 20:30	-6.4	-10.9	-6.4	89	-8.0	10	19	270	0.0	1026.8	0	0.000	0.0
20101214 20:35	-6.4	-10.9	-6.4	89	-8.0	10	19	270	0.0	1026.7	0	0.000	0.0
20101214 20:40	-6.5	-11.4	-6.5	89	-8.0	11	18	270	0.2	1026.8	0	0.000	0.0
20101214 20:45	-6.5	-10.9	-6.5	89	-8.0	10	16	270	0.0	1026.7	0	0.000	0.0
20101214 20:50	-6.5	-11.4	-6.5	89	-8.0	11	19	270	0.0	1026.7	0	0.000	0.0
20101214 20:55	-6.5	-10.9	-6.5	89	-8.0	10	19	292	0.0	1026.8	0	0.000	0.0
20101214 21:00	-6.5	-11.4	-6.5	89	-8.0	11	19	270	0.0	1026.8	0	0.000	0.0
20101214 21:05	-6.5	-10.9	-6.5	89	-8.0	10	18	270	0.0	1026.8	0	0.000	0.0
20101214 21:10	-6.6	-11.5	-6.6	89	-8.1	11	19	270	0.0	1026.8	0	0.000	0.0
20101214 21:15	-6.6	-11.5	-6.6	89	-8.1	11	19	270	0.0	1026.8	0	0.000	0.0
20101214 21:20	-6.6	-12.4	-6.6	89	-8.1	14	23	270	0.0	1026.8	0	0.000	0.0
20101214 21:25	-6.6	-12.4	-6.6	89	-8.1	14	23	292	0.0	1026.8	0	0.000	0.0
20101214 21:30	-6.6	-12.0	-6.6	89	-8.1	13	21	292	0.0	1026.8	0	0.000	0.0
20101214 21:35	-6.6	-11.0	-6.6	89	-8.1	10	19	292	0.2	1026.8	0	0.000	0.0
20101214 21:40	-6.6	-11.5	-6.6	89	-8.1	11	21	270	0.0	1026.8	0	0.000	0.0
20101214 21:45	-6.5	-11.4	-6.5	89	-8.0	11	18	270	0.0	1026.7	0	0.000	0.0
20101214 21:50	-6.5	-10.9	-6.5	89	-8.0	10	21	270	0.0	1026.7	0	0.000	0.0
20101214 21:55	-6.6	-12.0	-6.6	89	-8.1	13	21	270	0.0	1026.6	0	0.000	0.0
20101214 22:00	-6.6	-11.0	-6.6	89	-8.1	10	18	270	0.0	1026.6	0	0.000	0.0
20101214 22:05	-6.5	-11.4	-6.5	89	-8.0	11	19	292	0.0	1026.5	0	0.000	0.0
20101214 22:10	-6.5	-11.4	-6.5	89	-8.0	11	18	270	0.0	1026.6	0	0.000	0.0
20101214 22:15	-6.5	-12.3	-6.5	89	-8.0	14	19	270	0.0	1026.6	0	0.000	0.0
20101214 22:20	-6.5	-12.3	-6.5	89	-8.0	14	26	270	0.0	1026.7	0	0.000	0.0
20101214 22:25	-6.5	-12.3	-6.5	89	-8.0	14	21	270	0.0	1026.6	0	0.000	0.0
20101214 22:30	-6.5	-11.4	-6.5	89	-8.0	11	19	270	0.0	1026.6	0	0.000	0.0
20101214 22:35	-6.4	-10.9	-6.4	89	-8.0	10	21	270	0.0	1026.6	0	0.000	0.0
20101214 22:40	-6.4	-10.9	-6.4	89	-8.0	10	16	270	0.0	1026.3	0	0.000	0.0
20101214 22:45	-6.4	-11.4	-6.4	89	-8.0	11	19	270	0.0	1026.4	0	0.000	0.0
20101214 22:50	-6.4	-11.8	-6.4	89	-8.0	13	21	292	0.0	1026.4	0	0.000	0.0
20101214 22:55	-6.5	-11.4	-6.5	89	-8.0	11	21	270	0.0	1026.4	0	0.000	0.0
20101214 23:00	-6.5	-11.4	-6.5	89	-8.0	11	23	248	0.0	1026.4	0	0.000	0.0
20101214 23:05	-6.5	-12.3	-6.5	89	-8.0	14	23	270	0.0	1026.2	0	0.000	0.0
20101214 23:10	-6.5	-11.9	-6.5	89	-8.0	13	23	270	0.0	1026.2	0	0.000	0.0
20101214 23:15	-6.5	-11.4	-6.5	89	-8.0	11	19	270	0.2	1026.1	0	0.000	0.0
20101214 23:20	-6.5	-11.9	-6.5	89	-8.0	13	21	248	0.0	1026.2	0	0.000	0.0
20101214 23:25	-6.5	-11.4	-6.5	89	-8.0	11	18	270	0.0	1026.1	0	0.000	0.0
20101214 23:30	-6.5	-11.9	-6.5	89	-8.0	13	21	248	0.0	1026.0	0	0.000	0.0
20101214 23:35	-6.6	-12.0	-6.6	89	-8.1	13	23	270	0.0	1026.1	0	0.000	0.0
20101214 23:40	-6.6	-11.6	-6.6	89	-8.1	11	19	270	0.0	1026.0	0	0.000	0.0
20101214 23:45	-6.6	-12.0	-6.6	89	-8.1	13	21	270	0.0	1025.9	0	0.000	0.0
20101214 23:50	-6.6	-12.0	-6.6	89	-8.1	13	24	270	0.0	1026.0	0	0.000	0.0
20101214 23:55	-6.6	-11.5	-6.6	88	-8.2	11	19	270	0.0	1026.0	0	0.000	0.0



Please note the license to use and transfer of this data:
http://creativecommons.org/licenses/by-nc-sa/3.0/deed.en

Bitte beachten sie die Lizenz zur Verwertung und Weitergabe der Daten:
http://creativecommons.org/licenses/by-nc-sa/3.0/deed.de

zurück zur Übersicht der Archivdaten (Monats und Tagesdaten)

Cookies helfen bei der Bereitstellung von Inhalten. Durch die Nutzung dieser Seiten erklärst du dich damit einverstanden, dass Cookies auf deinem Rechner gespeichert werden. Weitere Information